createdAt,value
2023-08-31T00:00:54.970Z,7.87
2023-08-31T00:03:21.486Z,8.55
2023-08-31T00:05:48.190Z,9.10
2023-08-31T00:08:14.604Z,8.35
2023-08-31T00:10:41.108Z,8.55
2023-08-31T00:13:09.237Z,9.33
2023-08-31T00:15:36.917Z,12.02
2023-08-31T00:18:06.861Z,7.47
2023-08-31T00:20:34.416Z,8.15
2023-08-31T00:23:01.023Z,8.32
2023-08-31T00:25:27.393Z,6.90
2023-08-31T00:27:55.027Z,7.85
2023-08-31T00:30:21.451Z,7.07
2023-08-31T00:32:51.178Z,10.35
2023-08-31T00:35:18.370Z,8.35
2023-08-31T00:37:44.671Z,7.80
2023-08-31T00:40:14.816Z,7.43
2023-08-31T00:42:41.261Z,8.65
2023-08-31T00:45:08.119Z,8.65
2023-08-31T00:47:34.743Z,8.65
2023-08-31T00:50:01.404Z,9.13
2023-08-31T00:52:27.837Z,8.00
2023-08-31T00:54:55.065Z,8.93
2023-08-31T00:57:21.416Z,11.07
2023-08-31T00:59:47.798Z,8.00
2023-08-31T01:02:14.923Z,7.80
2023-08-31T01:04:50.376Z,9.30
2023-08-31T01:07:17.282Z,7.82
2023-08-31T01:10:07.494Z,7.97
2023-08-31T01:12:54.601Z,7.15
2023-08-31T01:15:21.384Z,8.33
2023-08-31T01:17:55.410Z,9.88
2023-08-31T01:20:48.652Z,6.63
2023-08-31T01:23:17.406Z,6.90
2023-08-31T01:25:44.272Z,7.07
2023-08-31T01:28:11.503Z,8.23
2023-08-31T01:30:37.810Z,8.77
2023-08-31T01:33:04.747Z,10.10
2023-08-31T01:35:34.039Z,8.90
2023-08-31T01:38:02.561Z,9.63
2023-08-31T01:40:33.349Z,8.80
2023-08-31T01:43:00.999Z,7.95
2023-08-31T01:45:27.693Z,8.48
2023-08-31T01:47:54.261Z,8.05
2023-08-31T01:50:20.863Z,9.02
2023-08-31T01:52:47.179Z,9.83
2023-08-31T01:55:16.733Z,9.75
2023-08-31T01:57:43.143Z,9.18
2023-08-31T02:00:10.861Z,8.90
2023-08-31T02:02:37.282Z,9.20
2023-08-31T02:05:05.401Z,8.67
2023-08-31T02:07:31.736Z,10.07
2023-08-31T02:09:58.012Z,10.63
2023-08-31T02:12:24.314Z,8.60
2023-08-31T02:14:50.814Z,8.77
2023-08-31T02:17:17.167Z,8.40
2023-08-31T02:19:43.498Z,11.13
2023-08-31T02:22:10.049Z,8.80
2023-08-31T02:24:36.365Z,8.70
2023-08-31T02:27:03.029Z,9.73
2023-08-31T02:29:29.427Z,11.43
2023-08-31T02:31:55.726Z,9.63
2023-08-31T02:34:22.014Z,8.48
2023-08-31T02:36:48.296Z,8.90
2023-08-31T02:39:15.053Z,9.45
2023-08-31T02:41:41.369Z,9.17
2023-08-31T02:44:07.714Z,8.77
2023-08-31T02:46:34.062Z,8.13
2023-08-31T02:49:00.426Z,8.25
2023-08-31T02:51:26.748Z,11.38
2023-08-31T02:53:54.361Z,9.07
2023-08-31T02:56:20.696Z,8.10
2023-08-31T02:58:46.991Z,9.50
2023-08-31T03:01:13.964Z,9.75
2023-08-31T03:03:40.906Z,8.80
2023-08-31T03:06:08.178Z,10.67
2023-08-31T03:08:34.595Z,9.25
2023-08-31T03:11:00.925Z,8.20
2023-08-31T03:13:27.253Z,10.30
2023-08-31T03:15:53.607Z,10.13
2023-08-31T03:18:19.942Z,11.30
2023-08-31T03:20:46.285Z,9.45
2023-08-31T03:23:12.887Z,9.25
2023-08-31T03:25:39.569Z,9.93
2023-08-31T03:28:05.958Z,9.15
2023-08-31T03:30:32.542Z,8.90
2023-08-31T03:32:58.947Z,7.32
2023-08-31T03:35:28.097Z,7.72
2023-08-31T03:37:54.577Z,8.45
2023-08-31T03:40:20.909Z,7.25
2023-08-31T03:42:47.239Z,9.87
2023-08-31T03:45:13.561Z,9.15
2023-08-31T03:47:39.932Z,7.88
2023-08-31T03:50:06.596Z,9.73
2023-08-31T03:52:32.880Z,8.23
2023-08-31T03:54:59.218Z,9.63
2023-08-31T03:57:25.530Z,8.38
2023-08-31T03:59:51.834Z,6.85
2023-08-31T04:02:18.101Z,7.25
2023-08-31T04:04:44.578Z,8.02
2023-08-31T04:07:10.881Z,7.07
2023-08-31T04:09:37.183Z,7.90
2023-08-31T04:12:03.649Z,7.25
2023-08-31T04:14:30.085Z,7.10
2023-08-31T04:16:56.697Z,8.05
2023-08-31T04:19:23.353Z,9.67
2023-08-31T04:21:49.711Z,6.68
2023-08-31T04:24:16.046Z,5.80
2023-08-31T04:26:43.786Z,7.57
2023-08-31T04:29:10.164Z,8.25
2023-08-31T04:31:36.510Z,8.77
2023-08-31T04:34:03.268Z,6.72
2023-08-31T04:36:30.020Z,7.35
2023-08-31T04:38:56.332Z,8.95
2023-08-31T04:41:22.663Z,8.13
2023-08-31T04:43:49.118Z,7.13
2023-08-31T04:46:15.836Z,5.88
2023-08-31T04:48:42.207Z,6.85
2023-08-31T04:51:10.854Z,7.03
2023-08-31T04:53:37.138Z,7.32
2023-08-31T04:56:03.492Z,5.87
2023-08-31T04:58:29.759Z,8.00
2023-08-31T05:00:56.105Z,6.13
2023-08-31T05:03:22.447Z,6.78
2023-08-31T05:05:48.856Z,5.57
2023-08-31T05:08:15.500Z,5.60
2023-08-31T05:10:41.886Z,8.15
2023-08-31T05:13:08.271Z,6.78
2023-08-31T05:15:35.536Z,9.93
2023-08-31T05:18:01.906Z,6.15
2023-08-31T05:20:28.291Z,5.97
2023-08-31T05:22:54.688Z,5.90
2023-08-31T05:25:21.042Z,7.75
2023-08-31T05:27:47.420Z,6.03
2023-08-31T05:30:13.862Z,6.15
2023-08-31T05:32:40.305Z,7.23
2023-08-31T05:35:07.781Z,7.75
2023-08-31T05:37:34.490Z,6.50
2023-08-31T05:40:00.799Z,6.03
2023-08-31T05:42:27.716Z,4.22
2023-08-31T05:44:54.067Z,4.37
2023-08-31T05:47:20.371Z,7.53
2023-08-31T05:49:46.658Z,5.72
2023-08-31T05:52:12.949Z,6.13
2023-08-31T05:54:39.238Z,6.50
2023-08-31T05:57:06.739Z,4.90
2023-08-31T05:59:33.042Z,7.68
2023-08-31T06:01:59.404Z,6.25
2023-08-31T06:04:25.806Z,4.57
2023-08-31T06:06:55.040Z,6.25
2023-08-31T06:09:21.539Z,4.20
2023-08-31T06:11:47.916Z,5.93
2023-08-31T06:14:14.232Z,4.72
2023-08-31T06:16:40.601Z,4.65
2023-08-31T06:19:06.920Z,5.18
2023-08-31T06:21:33.219Z,4.37
2023-08-31T06:23:59.525Z,5.45
2023-08-31T06:26:27.110Z,5.95
2023-08-31T06:28:53.522Z,6.47
2023-08-31T06:31:20.488Z,7.22
2023-08-31T06:33:46.929Z,4.30
2023-08-31T06:36:13.332Z,5.75
2023-08-31T06:38:39.625Z,4.25
2023-08-31T06:41:05.957Z,5.82
2023-08-31T06:43:32.679Z,5.28
2023-08-31T06:46:07.401Z,7.90
2023-08-31T06:48:45.314Z,6.05
2023-08-31T06:51:11.621Z,3.72
2023-08-31T06:53:38.392Z,5.57
2023-08-31T06:56:04.848Z,3.78
2023-08-31T06:58:31.148Z,8.00
2023-08-31T07:00:57.470Z,6.40
2023-08-31T07:03:27.020Z,6.97
2023-08-31T07:05:53.887Z,4.88
2023-08-31T07:08:20.282Z,6.85
2023-08-31T07:10:48.539Z,3.07
2023-08-31T07:13:15.152Z,6.45
2023-08-31T07:15:41.735Z,6.75
2023-08-31T07:18:08.786Z,5.50
2023-08-31T07:20:35.219Z,7.07
2023-08-31T07:23:01.689Z,8.13
2023-08-31T07:25:29.172Z,5.32
2023-08-31T07:27:55.489Z,8.35
2023-08-31T07:30:21.790Z,5.60
2023-08-31T07:32:48.304Z,8.38
2023-08-31T07:35:14.641Z,7.27
2023-08-31T07:37:41.025Z,6.22
2023-08-31T07:40:10.962Z,7.03
2023-08-31T07:42:37.342Z,4.93
2023-08-31T07:45:03.907Z,7.13
2023-08-31T07:47:30.618Z,6.60
2023-08-31T07:49:58.205Z,8.60
2023-08-31T07:52:24.495Z,6.63
2023-08-31T07:54:50.774Z,6.40
2023-08-31T07:57:17.162Z,8.35
2023-08-31T07:59:43.567Z,5.10
2023-08-31T08:02:10.095Z,5.57
2023-08-31T08:04:36.458Z,5.35
2023-08-31T08:07:04.346Z,5.97
2023-08-31T08:09:33.464Z,7.75
2023-08-31T08:11:59.774Z,7.40
2023-08-31T08:14:26.076Z,5.38
2023-08-31T08:16:52.428Z,6.45
2023-08-31T08:19:22.811Z,6.53
2023-08-31T08:21:49.123Z,6.10
2023-08-31T08:24:15.408Z,6.23
2023-08-31T08:26:41.707Z,10.35
2023-08-31T08:29:07.987Z,6.97
2023-08-31T08:31:34.367Z,9.20
2023-08-31T08:34:01.684Z,5.45
2023-08-31T08:36:28.150Z,8.97
2023-08-31T08:38:54.444Z,6.68
2023-08-31T08:41:23.785Z,5.53
2023-08-31T08:43:51.537Z,5.45
2023-08-31T08:46:17.912Z,7.68
2023-08-31T08:48:45.421Z,4.20
2023-08-31T08:51:12.069Z,5.40
2023-08-31T08:53:39.574Z,4.70
2023-08-31T08:56:05.901Z,5.75
2023-08-31T08:58:32.229Z,6.07
2023-08-31T09:00:58.600Z,6.67
2023-08-31T09:03:25.297Z,3.67
2023-08-31T09:05:53.009Z,6.45
2023-08-31T09:08:26.172Z,4.35
2023-08-31T09:10:52.465Z,4.63
2023-08-31T09:13:19.194Z,4.30
2023-08-31T09:15:46.978Z,6.10
2023-08-31T09:18:29.652Z,5.97
2023-08-31T09:20:57.800Z,8.10
2023-08-31T09:23:24.551Z,6.25
2023-08-31T09:25:52.092Z,3.53
2023-08-31T09:28:19.838Z,4.07
2023-08-31T09:30:47.304Z,5.03
2023-08-31T09:33:21.645Z,5.32
2023-08-31T09:35:52.303Z,4.60
2023-08-31T09:38:19.249Z,5.27
2023-08-31T09:40:46.732Z,5.97
2023-08-31T09:43:13.659Z,5.43
2023-08-31T09:45:46.016Z,4.85
2023-08-31T09:48:14.609Z,3.72
2023-08-31T09:50:41.367Z,4.00
2023-08-31T09:53:08.549Z,5.10
2023-08-31T09:55:36.289Z,5.95
2023-08-31T09:58:14.431Z,6.57
2023-08-31T10:00:43.087Z,3.13
2023-08-31T10:03:09.934Z,4.87
2023-08-31T10:05:36.655Z,3.85
2023-08-31T10:08:03.009Z,3.00
2023-08-31T10:10:30.121Z,4.13
2023-08-31T10:12:57.201Z,4.03
2023-08-31T10:15:23.553Z,4.50
2023-08-31T10:17:50.279Z,6.05
2023-08-31T10:20:17.528Z,5.40
2023-08-31T10:22:44.040Z,6.43
2023-08-31T10:25:10.437Z,3.90
2023-08-31T10:27:47.012Z,3.67
2023-08-31T10:30:13.949Z,4.85
2023-08-31T10:32:40.321Z,3.85
2023-08-31T10:35:07.332Z,2.88
2023-08-31T10:37:33.733Z,3.40
2023-08-31T10:40:12.661Z,3.80
2023-08-31T10:42:42.455Z,3.28
2023-08-31T10:45:08.917Z,4.15
2023-08-31T10:47:40.029Z,4.13
2023-08-31T10:50:23.568Z,3.33
2023-08-31T10:52:50.376Z,3.77
2023-08-31T10:55:16.823Z,4.22
2023-08-31T10:57:43.157Z,3.80
2023-08-31T11:00:10.137Z,3.75
2023-08-31T11:02:43.880Z,3.20
2023-08-31T11:05:16.870Z,2.27
2023-08-31T11:07:44.056Z,3.42
2023-08-31T11:10:14.597Z,3.40
2023-08-31T11:12:41.582Z,2.83
2023-08-31T11:15:08.462Z,3.38
2023-08-31T11:17:35.095Z,3.03
2023-08-31T11:20:01.976Z,3.55
2023-08-31T11:22:28.455Z,3.97
2023-08-31T11:24:54.846Z,6.38
2023-08-31T11:27:21.765Z,3.88
2023-08-31T11:29:48.408Z,4.40
2023-08-31T11:32:14.885Z,4.93
2023-08-31T11:34:42.652Z,3.97
2023-08-31T11:37:09.054Z,2.13
2023-08-31T11:39:35.440Z,2.28
2023-08-31T11:42:01.803Z,1.87
2023-08-31T11:44:28.237Z,3.20
2023-08-31T11:46:54.637Z,2.67
2023-08-31T11:49:21.215Z,1.95
2023-08-31T11:51:50.594Z,1.98
2023-08-31T11:54:18.624Z,3.33
2023-08-31T11:56:47.437Z,2.17
2023-08-31T11:59:15.944Z,3.28
2023-08-31T12:01:43.517Z,3.03
2023-08-31T12:04:13.029Z,2.95
2023-08-31T12:06:40.465Z,2.33
2023-08-31T12:09:10.129Z,3.17
2023-08-31T12:11:36.535Z,3.17
2023-08-31T12:14:04.902Z,3.20
2023-08-31T12:16:36.209Z,3.05
2023-08-31T12:19:05.421Z,2.37
2023-08-31T12:21:32.449Z,1.83
2023-08-31T12:24:00.666Z,2.83
2023-08-31T12:26:27.993Z,4.55
2023-08-31T12:28:54.316Z,4.45
2023-08-31T12:31:20.738Z,2.37
2023-08-31T12:33:47.954Z,2.03
2023-08-31T12:36:14.635Z,2.63
2023-08-31T12:38:41.142Z,2.85
2023-08-31T12:41:07.444Z,2.53
2023-08-31T12:43:34.691Z,1.83
2023-08-31T12:46:01.163Z,2.92
2023-08-31T12:48:27.940Z,3.40
2023-08-31T12:50:54.948Z,1.77
2023-08-31T12:53:24.795Z,2.63
2023-08-31T12:55:51.095Z,3.13
2023-08-31T12:58:17.592Z,2.00
2023-08-31T13:00:49.914Z,3.25
2023-08-31T13:03:16.538Z,2.17
2023-08-31T13:05:43.076Z,1.58
2023-08-31T13:08:10.160Z,2.43
2023-08-31T13:10:36.532Z,2.22
2023-08-31T13:13:03.003Z,2.00
2023-08-31T13:15:29.338Z,3.58
2023-08-31T13:17:55.655Z,3.75
2023-08-31T13:20:21.992Z,2.27
2023-08-31T13:22:48.280Z,3.58
2023-08-31T13:25:14.779Z,1.55
2023-08-31T13:27:41.380Z,2.60
2023-08-31T13:30:08.070Z,2.90
2023-08-31T13:32:34.870Z,2.97
2023-08-31T13:35:01.294Z,4.13
2023-08-31T13:37:27.589Z,2.30
2023-08-31T13:39:53.977Z,2.50
2023-08-31T13:42:21.487Z,2.53
2023-08-31T13:44:47.835Z,4.40
2023-08-31T13:47:14.221Z,3.03
2023-08-31T13:49:40.533Z,3.03
2023-08-31T13:52:06.907Z,3.40
2023-08-31T13:54:36.070Z,4.53
2023-08-31T13:57:02.390Z,3.17
2023-08-31T13:59:28.829Z,2.47
2023-08-31T14:01:55.406Z,3.53
2023-08-31T14:04:23.124Z,3.20
2023-08-31T14:06:49.593Z,3.42
2023-08-31T14:09:16.022Z,3.23
2023-08-31T14:11:42.368Z,3.50
2023-08-31T14:14:12.183Z,4.65
2023-08-31T14:16:38.780Z,3.60
2023-08-31T14:19:05.653Z,4.88
2023-08-31T14:21:31.957Z,4.03
2023-08-31T14:23:58.567Z,4.00
2023-08-31T14:26:25.320Z,3.80
2023-08-31T14:28:52.356Z,2.28
2023-08-31T14:31:19.299Z,3.78
2023-08-31T14:33:45.961Z,2.97
2023-08-31T14:36:13.844Z,2.75
2023-08-31T14:38:40.161Z,2.55
2023-08-31T14:41:07.505Z,4.30
2023-08-31T14:43:34.569Z,3.67
2023-08-31T14:46:05.144Z,3.37
2023-08-31T14:48:33.069Z,3.40
2023-08-31T14:51:02.180Z,3.78
2023-08-31T14:53:28.772Z,4.95
2023-08-31T14:55:55.117Z,4.25
2023-08-31T14:58:21.932Z,4.30
2023-08-31T15:00:48.234Z,3.80
2023-08-31T15:03:14.769Z,3.45
2023-08-31T15:05:44.237Z,4.28
2023-08-31T15:08:12.516Z,2.88
2023-08-31T15:10:40.236Z,3.90
2023-08-31T15:13:07.103Z,2.83
2023-08-31T15:15:34.255Z,4.15
2023-08-31T15:18:00.658Z,4.55
2023-08-31T15:20:27.708Z,3.72
2023-08-31T15:22:54.462Z,5.17
2023-08-31T15:25:20.753Z,2.90
2023-08-31T15:27:47.163Z,1.95
2023-08-31T15:30:13.681Z,3.42
2023-08-31T15:32:40.024Z,3.58
2023-08-31T15:35:06.521Z,3.23
2023-08-31T15:37:33.483Z,4.07
2023-08-31T15:39:59.825Z,3.95
2023-08-31T15:42:26.906Z,3.90
2023-08-31T15:44:56.928Z,3.10
2023-08-31T15:47:23.973Z,3.17
2023-08-31T15:49:53.444Z,3.97
2023-08-31T15:52:19.818Z,3.88
2023-08-31T15:54:46.123Z,7.60
2023-08-31T15:57:12.652Z,4.75
2023-08-31T15:59:39.630Z,3.87
2023-08-31T16:02:06.591Z,3.30
2023-08-31T16:04:32.922Z,3.38
2023-08-31T16:06:59.200Z,4.03
2023-08-31T16:09:25.523Z,5.40
2023-08-31T16:11:51.789Z,3.93
2023-08-31T16:14:18.112Z,3.65
2023-08-31T16:16:44.477Z,3.70
2023-08-31T16:19:12.247Z,3.47
2023-08-31T16:21:38.560Z,3.90
2023-08-31T16:24:05.058Z,6.27
2023-08-31T16:26:31.438Z,4.95
2023-08-31T16:28:57.740Z,3.67
2023-08-31T16:31:25.195Z,3.28
2023-08-31T16:33:51.605Z,4.85
2023-08-31T16:36:17.932Z,5.13
2023-08-31T16:38:44.278Z,5.00
2023-08-31T16:41:10.767Z,3.53
2023-08-31T16:43:37.073Z,3.55
2023-08-31T16:46:04.325Z,3.30
2023-08-31T16:48:30.701Z,4.27
2023-08-31T16:50:57.035Z,2.90
2023-08-31T16:53:23.369Z,3.95
2023-08-31T16:55:49.709Z,4.43
2023-08-31T16:58:16.239Z,4.45
2023-08-31T17:00:42.697Z,6.17
2023-08-31T17:03:09.049Z,5.88
2023-08-31T17:05:35.444Z,4.20
2023-08-31T17:08:01.816Z,4.35
2023-08-31T17:10:28.115Z,4.47
2023-08-31T17:12:54.561Z,5.30
2023-08-31T17:15:21.004Z,4.85
2023-08-31T17:17:49.329Z,3.83
2023-08-31T17:20:19.563Z,3.78
2023-08-31T17:22:46.988Z,4.05
2023-08-31T17:25:13.694Z,5.70
2023-08-31T17:27:40.409Z,4.38
2023-08-31T17:30:07.764Z,3.35
2023-08-31T17:32:35.643Z,5.18
2023-08-31T17:35:04.606Z,5.60
2023-08-31T17:37:31.419Z,4.00
2023-08-31T17:39:57.780Z,6.28
2023-08-31T17:42:24.089Z,6.55
2023-08-31T17:44:50.413Z,4.50
2023-08-31T17:47:16.702Z,3.47
2023-08-31T17:49:43.575Z,3.87
2023-08-31T17:52:10.418Z,5.30
2023-08-31T17:54:36.778Z,4.78
2023-08-31T17:57:03.705Z,4.85
2023-08-31T17:59:30.775Z,5.53
2023-08-31T18:01:57.457Z,6.17
2023-08-31T18:04:26.808Z,5.25
2023-08-31T18:06:53.169Z,4.93
2023-08-31T18:09:19.719Z,5.35
2023-08-31T18:11:46.407Z,6.35
2023-08-31T18:14:12.755Z,5.87
2023-08-31T18:16:39.119Z,6.13
2023-08-31T18:19:07.234Z,3.58
2023-08-31T18:21:33.549Z,5.70
2023-08-31T18:24:00.853Z,4.35
2023-08-31T18:26:27.232Z,3.90
2023-08-31T18:28:53.597Z,5.00
2023-08-31T18:31:20.051Z,4.90
2023-08-31T18:33:46.402Z,5.45
2023-08-31T18:36:12.791Z,4.97
2023-08-31T18:38:39.237Z,5.53
2023-08-31T18:41:05.738Z,4.88
2023-08-31T18:43:32.063Z,6.00
2023-08-31T18:45:58.443Z,6.45
2023-08-31T18:48:24.922Z,6.47
2023-08-31T18:51:01.090Z,7.00
2023-08-31T18:53:27.921Z,4.38
2023-08-31T18:55:58.603Z,6.53
2023-08-31T18:58:24.980Z,6.97
2023-08-31T19:00:51.932Z,4.88
2023-08-31T19:03:18.310Z,5.17
2023-08-31T19:05:45.146Z,5.68
2023-08-31T19:08:11.477Z,4.03
2023-08-31T19:10:37.801Z,8.90
2023-08-31T19:13:08.152Z,6.28
2023-08-31T19:15:35.184Z,6.40
2023-08-31T19:18:01.618Z,4.07
2023-08-31T19:20:27.961Z,6.20
2023-08-31T19:22:54.261Z,5.03
2023-08-31T19:25:20.637Z,5.97
2023-08-31T19:27:49.190Z,4.73
2023-08-31T19:30:15.516Z,4.72
2023-08-31T19:32:41.856Z,4.00
2023-08-31T19:35:24.597Z,5.43
2023-08-31T19:37:55.392Z,6.28
2023-08-31T19:40:22.438Z,4.93
2023-08-31T19:42:49.520Z,4.38
2023-08-31T19:45:18.795Z,5.82
2023-08-31T19:47:47.739Z,3.75
2023-08-31T19:50:14.957Z,5.82
2023-08-31T19:52:41.247Z,5.33
2023-08-31T19:55:11.088Z,4.43
2023-08-31T19:57:37.378Z,3.53
2023-08-31T20:00:04.631Z,4.00
2023-08-31T20:02:30.951Z,5.47
2023-08-31T20:04:57.282Z,6.03
2023-08-31T20:07:24.856Z,4.78
2023-08-31T20:09:52.147Z,5.75
2023-08-31T20:12:18.602Z,5.43
2023-08-31T20:14:45.354Z,6.18
2023-08-31T20:17:11.656Z,3.33
2023-08-31T20:19:39.428Z,7.00
2023-08-31T20:22:06.026Z,6.32
2023-08-31T20:24:32.379Z,5.10
2023-08-31T20:27:01.662Z,5.63
2023-08-31T20:29:27.973Z,5.83
2023-08-31T20:31:54.414Z,5.25
2023-08-31T20:34:20.824Z,7.30
2023-08-31T20:36:47.547Z,5.05
2023-08-31T20:39:15.424Z,4.38
2023-08-31T20:41:41.839Z,4.57
2023-08-31T20:44:08.145Z,5.22
2023-08-31T20:46:38.927Z,6.65
2023-08-31T20:49:06.150Z,4.65
2023-08-31T20:51:33.022Z,4.10
2023-08-31T20:54:00.430Z,6.57
2023-08-31T20:56:27.463Z,7.07
2023-08-31T20:58:53.768Z,6.55
2023-08-31T21:01:24.201Z,4.18
2023-08-31T21:03:57.204Z,6.95
2023-08-31T21:06:28.054Z,6.07
2023-08-31T21:08:54.972Z,6.03
2023-08-31T21:11:21.473Z,3.95
2023-08-31T21:13:48.233Z,4.45
2023-08-31T21:16:14.980Z,6.10
2023-08-31T21:18:41.594Z,6.50
2023-08-31T21:21:08.702Z,6.78
2023-08-31T21:23:35.096Z,6.03
2023-08-31T21:26:02.399Z,4.75
2023-08-31T21:28:28.807Z,5.85
2023-08-31T21:30:55.275Z,4.73
2023-08-31T21:33:21.597Z,5.90
2023-08-31T21:35:48.090Z,6.57
2023-08-31T21:38:14.730Z,8.82
2023-08-31T21:40:41.851Z,6.45
2023-08-31T21:43:09.231Z,6.43
2023-08-31T21:45:37.317Z,6.35
2023-08-31T21:48:04.192Z,8.82
2023-08-31T21:50:31.479Z,6.47
2023-08-31T21:52:58.064Z,7.55
2023-08-31T21:55:25.074Z,6.80
2023-08-31T21:57:51.538Z,5.70
2023-08-31T22:00:19.015Z,5.82
2023-08-31T22:02:47.205Z,6.55
2023-08-31T22:05:15.161Z,7.25
2023-08-31T22:07:41.777Z,5.30
2023-08-31T22:10:11.981Z,8.13
2023-08-31T22:12:38.897Z,5.22
2023-08-31T22:15:06.685Z,6.75
2023-08-31T22:17:33.725Z,6.50
2023-08-31T22:20:01.519Z,7.37
2023-08-31T22:22:27.872Z,6.90
2023-08-31T22:24:54.542Z,5.97
2023-08-31T22:27:21.080Z,7.68
2023-08-31T22:29:47.414Z,7.57
2023-08-31T22:32:14.033Z,5.50
2023-08-31T22:34:40.356Z,9.00
2023-08-31T22:37:06.676Z,5.50
2023-08-31T22:39:32.985Z,7.57
2023-08-31T22:41:59.292Z,6.22
2023-08-31T22:44:25.666Z,6.97
2023-08-31T22:46:51.976Z,6.38
2023-08-31T22:49:18.305Z,7.05
2023-08-31T22:51:44.596Z,6.13
2023-08-31T22:54:10.878Z,5.45
2023-08-31T22:56:37.209Z,8.33
2023-08-31T22:59:03.518Z,8.43
2023-08-31T23:01:29.899Z,8.15
2023-08-31T23:03:56.231Z,8.95
2023-08-31T23:06:22.988Z,9.48
2023-08-31T23:08:49.439Z,9.33
2023-08-31T23:11:15.804Z,7.55
2023-08-31T23:13:42.118Z,8.95
2023-08-31T23:16:08.583Z,10.25
2023-08-31T23:18:34.925Z,11.50
2023-08-31T23:21:05.477Z,9.50
2023-08-31T23:23:31.990Z,8.63
2023-08-31T23:25:58.380Z,11.18
2023-08-31T23:28:24.739Z,8.13
2023-08-31T23:30:51.197Z,8.88
2023-08-31T23:33:17.525Z,8.00
2023-08-31T23:35:46.761Z,8.50
2023-08-31T23:38:14.403Z,9.30
2023-08-31T23:40:42.194Z,11.88
2023-08-31T23:43:08.576Z,16.25
2023-08-31T23:45:34.877Z,9.60
2023-08-31T23:48:01.237Z,9.07
2023-08-31T23:50:27.583Z,8.43
2023-08-31T23:52:54.224Z,7.88
2023-08-31T23:55:21.092Z,9.50
2023-08-31T23:57:47.414Z,7.73
